Chester, MD (21619)

2:00 PM EST on February 25, 2017 (GMT -0500)
Stevensville | | Change Station
Active Advisory: Severe Thunderstorm Watch

Elev 0 ft 38.92 °N, 76.35 °W | Updated 3 minutes ago

Partly Cloudy
Partly Cloudy
69.1 °F
Feels Like 69.1 °F
N
7.5
Wind Variable Wind from SE
Gusts 24.2 mph

Today
High -- | Low -- °F
--% Chance of Precip.
Yesterday
High -- | Low -- °F
Precip. -- in
Pressure 29.51 in
Visibility 7.0 miles
Clouds Clear
Dew Point 57 °F
Humidity 65%
Rainfall 0.00 in
Snow Depth Not available.
6:42 AM 5:53 PM
Waning Crescent, 1% visible
METAR KW29 251840Z AUTO 15016KT 7SM HZ CLR 22/14 A2951 RMK AO2 TSNO
Pressure 29.51 in
Visibility 7.0 miles
Clouds Clear
Dew Point 57 °F
Humidity 65%
Rainfall 0.00 in
Snow Depth Not available.
6:42 AM 5:53 PM
Waning Crescent, 1% visible
METAR KW29 251840Z AUTO 15016KT 7SM HZ CLR 22/14 A2951 RMK AO2 TSNO

Get Your Daily Forecast Email!

Thanks for signing up!

Be on the lookout for a verification email in your inbox.

You'll start receiving the daily forecast at 8 AM.

×

10-Day Weather Forecast

Almanac

Astronomy

Feb. 25, 2017 Rise Set
Actual Time
Civil Twilight
Nautical Twilight
Astronomical Twilight
Moon
Length of Visible Light
Length of Day
Tomorrow will be .
, % of the Moon is Illuminated

Today's Extremes

State Highs State Lows

Community

WunderPhotos

Upload Photos

1,962,540 photos uploaded!

WunderBlog® & News

Nearby

Air Quality

  Air Quality AQ Index Pollutant
Not available.

Snow Depth

Station Depth Elevation

Earthquake Activity

City Distance Mag. Time & Date
Minimum magnitude displayed is 2.5.

Coastal Water Temperatures

Place Temperature

Stations

Nearby Weather Stations

Station Location Temp. Windchill Dew Point Humidity Wind Precip. Elev Updated Type
                   

Watches & Warnings

Severe Thunderstorm Watch
Issued: 1:43 PM EST Feb. 25, 2017 – National Weather Service

Severe Thunderstorm Watch 39 remains in effect until 800 PM EST

MD
. Maryland counties included are

Anne Arundel Baltimore Calvert
Caroline Carroll Cecil
Charles Dorchester Frederick
Harford Howard Kent
Montgomery Prince Georges Queen Anne's
St. Marys Talbot Washington




Maryland independent cities included are

Baltimore City